createdAt,value
2022-08-30T00:02:01.133Z,24.54
2022-08-30T00:04:27.714Z,24.32
2022-08-30T00:06:54.341Z,24.51
2022-08-30T00:09:20.822Z,24.24
2022-08-30T00:11:47.415Z,23.69
2022-08-30T00:14:13.844Z,24.26
2022-08-30T00:16:40.274Z,24.05
2022-08-30T00:19:06.807Z,24.15
2022-08-30T00:21:33.319Z,24.15
2022-08-30T00:23:59.980Z,24.20
2022-08-30T00:26:26.427Z,24.42
2022-08-30T00:28:52.972Z,24.42
2022-08-30T00:31:19.509Z,24.52
2022-08-30T00:33:45.980Z,23.53
2022-08-30T00:36:12.411Z,23.95
2022-08-30T00:38:38.866Z,24.31
2022-08-30T00:41:05.446Z,24.48
2022-08-30T00:43:34.834Z,24.55
2022-08-30T00:46:07.598Z,24.53
2022-08-30T00:48:38.068Z,24.50
2022-08-30T00:51:10.610Z,24.62
2022-08-30T00:53:42.106Z,24.02
2022-08-30T00:56:10.141Z,24.41
2022-08-30T00:58:40.113Z,24.48
2022-08-30T01:01:07.547Z,24.57
2022-08-30T01:03:35.932Z,24.62
2022-08-30T01:06:04.644Z,24.01
2022-08-30T01:08:31.078Z,24.27
2022-08-30T01:10:58.333Z,24.50
2022-08-30T01:13:26.863Z,24.57
2022-08-30T01:15:54.678Z,24.59
2022-08-30T01:18:24.066Z,24.24
2022-08-30T01:21:07.239Z,24.27
2022-08-30T01:23:36.344Z,24.35
2022-08-30T01:26:05.989Z,24.51
2022-08-30T01:28:33.552Z,23.85
2022-08-30T01:31:01.395Z,24.00
2022-08-30T01:33:28.074Z,24.41
2022-08-30T01:35:59.124Z,23.88
2022-08-30T01:38:33.818Z,24.33
2022-08-30T01:41:08.616Z,24.27
2022-08-30T01:43:35.156Z,24.33
2022-08-30T01:46:02.812Z,23.88
2022-08-30T01:48:31.015Z,24.27
2022-08-30T01:50:58.689Z,24.37
2022-08-30T01:53:25.599Z,23.75
2022-08-30T01:55:52.027Z,24.21
2022-08-30T01:58:18.536Z,24.17
2022-08-30T02:00:45.167Z,23.44
2022-08-30T02:03:12.337Z,24.00
2022-08-30T02:05:39.128Z,23.85
2022-08-30T02:08:05.747Z,24.06
2022-08-30T02:10:32.508Z,23.81
2022-08-30T02:12:59.460Z,24.20
2022-08-30T02:15:26.265Z,24.00
2022-08-30T02:17:52.801Z,23.98
2022-08-30T02:20:19.797Z,24.10
2022-08-30T02:22:48.121Z,23.98
2022-08-30T02:25:20.701Z,23.92
2022-08-30T02:27:48.050Z,23.75
2022-08-30T02:30:14.562Z,23.76
2022-08-30T02:32:41.510Z,23.27
2022-08-30T02:35:08.402Z,23.92
2022-08-30T02:37:35.072Z,23.33
2022-08-30T02:40:01.633Z,23.69
2022-08-30T02:42:28.121Z,22.89
2022-08-30T02:44:54.537Z,23.69
2022-08-30T02:47:21.055Z,23.70
2022-08-30T02:49:47.414Z,23.74
2022-08-30T02:52:13.852Z,23.57
2022-08-30T02:54:40.300Z,23.78
2022-08-30T02:57:07.464Z,23.05
2022-08-30T02:59:47.841Z,23.61
2022-08-30T03:02:14.432Z,23.64
2022-08-30T03:04:41.120Z,23.53
2022-08-30T03:07:08.397Z,23.64
2022-08-30T03:09:36.319Z,23.61
2022-08-30T03:12:03.222Z,23.01
2022-08-30T03:14:29.686Z,23.48
2022-08-30T03:16:56.192Z,22.78
2022-08-30T03:19:22.946Z,23.33
2022-08-30T03:21:50.373Z,23.13
2022-08-30T03:24:17.330Z,23.35
2022-08-30T03:26:46.365Z,22.74
2022-08-30T03:29:13.341Z,23.38
2022-08-30T03:31:40.661Z,23.37
2022-08-30T03:34:21.958Z,23.37
2022-08-30T03:36:49.348Z,22.82
2022-08-30T03:39:15.813Z,23.14
2022-08-30T03:41:42.227Z,23.32
2022-08-30T03:44:09.041Z,22.86
2022-08-30T03:46:37.432Z,23.43
2022-08-30T03:49:05.116Z,22.82
2022-08-30T03:51:33.069Z,23.40
2022-08-30T03:54:00.343Z,23.07
2022-08-30T03:56:28.706Z,23.13
2022-08-30T03:58:55.296Z,23.19
2022-08-30T04:01:21.727Z,23.32
2022-08-30T04:03:48.168Z,23.26
2022-08-30T04:06:14.735Z,23.21
2022-08-30T04:08:43.296Z,23.31
2022-08-30T04:11:12.839Z,23.26
2022-08-30T04:13:39.321Z,22.65
2022-08-30T04:16:06.105Z,23.13
2022-08-30T04:18:32.566Z,22.62
2022-08-30T04:20:59.016Z,22.58
2022-08-30T04:23:27.548Z,23.14
2022-08-30T04:25:54.482Z,22.35
2022-08-30T04:28:25.763Z,22.45
2022-08-30T04:30:52.274Z,23.19
2022-08-30T04:33:19.206Z,22.56
2022-08-30T04:35:49.239Z,22.67
2022-08-30T04:38:17.224Z,23.14
2022-08-30T04:40:45.677Z,23.14
2022-08-30T04:43:13.068Z,23.06
2022-08-30T04:45:41.249Z,22.74
2022-08-30T04:48:08.453Z,23.15
2022-08-30T04:50:34.977Z,22.86
2022-08-30T04:53:01.513Z,22.11
2022-08-30T04:55:28.204Z,22.67
2022-08-30T04:57:55.056Z,23.05
2022-08-30T05:00:21.792Z,22.38
2022-08-30T05:02:49.116Z,21.74
2022-08-30T05:05:34.955Z,22.44
2022-08-30T05:08:05.186Z,23.03
2022-08-30T05:10:41.615Z,22.16
2022-08-30T05:13:10.802Z,22.49
2022-08-30T05:15:39.599Z,22.63
2022-08-30T05:18:08.458Z,21.71
2022-08-30T05:20:43.698Z,21.79
2022-08-30T05:23:10.810Z,22.30
2022-08-30T05:25:40.855Z,22.62
2022-08-30T05:28:07.903Z,22.86
2022-08-30T05:30:36.539Z,23.01
2022-08-30T05:33:03.475Z,21.90
2022-08-30T05:35:29.945Z,22.53
2022-08-30T05:38:06.771Z,22.50
2022-08-30T05:40:33.630Z,21.92
2022-08-30T05:43:00.318Z,22.39
2022-08-30T05:45:27.120Z,22.73
2022-08-30T05:48:04.653Z,21.60
2022-08-30T05:50:35.854Z,22.82
2022-08-30T05:53:04.660Z,22.29
2022-08-30T05:55:31.318Z,21.90
2022-08-30T05:58:00.278Z,22.54
2022-08-30T06:00:27.023Z,22.62
2022-08-30T06:02:54.830Z,21.83
2022-08-30T06:05:21.482Z,23.06
2022-08-30T06:07:49.575Z,22.34
2022-08-30T06:10:16.822Z,21.95
2022-08-30T06:12:44.058Z,22.53
2022-08-30T06:15:11.393Z,22.78
2022-08-30T06:17:39.732Z,21.99
2022-08-30T06:20:09.699Z,22.35
2022-08-30T06:22:36.495Z,22.92
2022-08-30T06:25:06.970Z,22.24
2022-08-30T06:27:33.615Z,22.12
2022-08-30T06:30:00.038Z,23.24
2022-08-30T06:32:26.629Z,23.27
2022-08-30T06:34:53.551Z,22.85
2022-08-30T06:37:21.958Z,23.20
2022-08-30T06:39:57.608Z,23.47
2022-08-30T06:42:31.720Z,22.99
2022-08-30T06:45:01.239Z,23.35
2022-08-30T06:47:29.293Z,23.37
2022-08-30T06:49:58.799Z,22.97
2022-08-30T06:52:25.487Z,23.23
2022-08-30T06:54:54.362Z,23.51
2022-08-30T06:57:20.881Z,23.20
2022-08-30T06:59:47.425Z,23.59
2022-08-30T07:02:16.265Z,23.16
2022-08-30T07:04:42.734Z,23.73
2022-08-30T07:07:11.727Z,23.56
2022-08-30T07:09:43.232Z,23.26
2022-08-30T07:12:11.123Z,23.35
2022-08-30T07:14:40.051Z,23.20
2022-08-30T07:17:34.545Z,22.57
2022-08-30T07:20:01.865Z,23.02
2022-08-30T07:22:28.964Z,23.70
2022-08-30T07:24:55.856Z,23.34
2022-08-30T07:27:23.424Z,23.37
2022-08-30T07:29:50.093Z,23.28
2022-08-30T07:32:20.195Z,23.85
2022-08-30T07:34:46.649Z,23.28
2022-08-30T07:37:18.050Z,23.14
2022-08-30T07:39:47.993Z,23.07
2022-08-30T07:42:15.419Z,23.78
2022-08-30T07:44:42.240Z,23.84
2022-08-30T07:47:08.849Z,23.92
2022-08-30T07:49:36.902Z,24.04
2022-08-30T07:52:04.478Z,23.84
2022-08-30T07:54:31.017Z,24.04
2022-08-30T07:56:57.493Z,23.68
2022-08-30T07:59:23.980Z,24.06
2022-08-30T08:01:50.765Z,23.90
2022-08-30T08:04:19.397Z,24.27
2022-08-30T08:06:46.180Z,23.70
2022-08-30T08:09:12.729Z,24.20
2022-08-30T08:11:41.318Z,24.15
2022-08-30T08:14:08.167Z,24.60
2022-08-30T08:16:36.494Z,24.37
2022-08-30T08:19:04.940Z,24.61
2022-08-30T08:21:31.543Z,24.50
2022-08-30T08:23:58.015Z,24.97
2022-08-30T08:26:24.681Z,24.98
2022-08-30T08:28:51.191Z,24.08
2022-08-30T08:31:33.131Z,25.13
2022-08-30T08:36:30.266Z,25.19
2022-08-30T08:38:56.805Z,24.26
2022-08-30T08:41:26.355Z,25.18
2022-08-30T08:43:54.229Z,24.91
2022-08-30T08:46:26.787Z,25.31
2022-08-30T08:49:01.458Z,25.29
2022-08-30T08:51:51.358Z,25.06
2022-08-30T08:54:36.617Z,25.51
2022-08-30T08:57:03.416Z,24.53
2022-08-30T08:59:29.994Z,24.93
2022-08-30T09:02:03.156Z,25.71
2022-08-30T09:04:37.828Z,25.60
2022-08-30T09:07:21.737Z,25.41
2022-08-30T09:09:48.446Z,25.33
2022-08-30T09:12:15.098Z,25.27
2022-08-30T09:14:59.176Z,24.85
2022-08-30T09:17:26.630Z,26.12
2022-08-30T09:19:53.143Z,26.29
2022-08-30T09:22:36.096Z,26.36
2022-08-30T09:25:17.194Z,26.40
2022-08-30T09:27:49.105Z,26.58
2022-08-30T09:30:21.206Z,26.62
2022-08-30T09:32:54.353Z,26.70
2022-08-30T09:35:48.459Z,26.96
2022-08-30T09:38:25.995Z,27.00
2022-08-30T09:40:58.693Z,26.73
2022-08-30T09:43:33.601Z,27.25
2022-08-30T09:46:00.187Z,27.36
2022-08-30T09:48:44.080Z,27.39
2022-08-30T09:51:39.096Z,27.54
2022-08-30T09:54:18.633Z,27.52
2022-08-30T09:57:14.228Z,26.87
2022-08-30T10:00:01.502Z,27.46
2022-08-30T10:03:04.622Z,27.55
2022-08-30T10:05:35.566Z,27.64
2022-08-30T10:08:07.134Z,27.51
2022-08-30T10:11:00.630Z,27.53
2022-08-30T10:13:56.666Z,27.83
2022-08-30T10:16:45.130Z,27.99
2022-08-30T10:19:25.143Z,27.98
2022-08-30T10:22:24.805Z,27.51
2022-08-30T10:25:16.230Z,28.11
2022-08-30T10:27:55.394Z,27.99
2022-08-30T10:30:26.098Z,27.82
2022-08-30T10:33:02.597Z,28.14
2022-08-30T10:35:38.819Z,27.86
2022-08-30T10:38:37.101Z,28.51
2022-08-30T10:41:18.630Z,28.54
2022-08-30T10:43:45.861Z,28.66
2022-08-30T10:47:01.102Z,28.73
2022-08-30T10:49:32.923Z,28.63
2022-08-30T10:52:08.576Z,28.72
2022-08-30T10:54:41.047Z,28.66
2022-08-30T10:57:07.485Z,28.47
2022-08-30T10:59:40.617Z,28.32
2022-08-30T11:02:39.577Z,27.95
2022-08-30T11:05:15.093Z,29.02
2022-08-30T11:08:20.412Z,29.13
2022-08-30T11:11:17.476Z,29.16
2022-08-30T11:13:53.489Z,29.25
2022-08-30T11:16:37.386Z,29.41
2022-08-30T11:19:21.336Z,28.47
2022-08-30T11:21:59.651Z,29.13
2022-08-30T11:24:26.157Z,28.87
2022-08-30T11:27:36.436Z,29.69
2022-08-30T11:33:11.781Z,29.62
2022-08-30T11:35:50.027Z,29.67
2022-08-30T11:38:25.591Z,29.82
2022-08-30T11:41:00.305Z,29.69
2022-08-30T11:43:36.520Z,29.85
2022-08-30T11:46:26.991Z,29.39
2022-08-30T11:49:15.055Z,29.78
2022-08-30T11:52:23.869Z,30.09
2022-08-30T11:55:15.539Z,30.16
2022-08-30T11:58:12.726Z,30.00
2022-08-30T12:00:42.745Z,30.00
2022-08-30T12:03:16.230Z,30.08
2022-08-30T12:06:04.095Z,30.16
2022-08-30T12:08:34.074Z,30.34
2022-08-30T12:11:14.260Z,29.37
2022-08-30T12:13:49.212Z,30.36
2022-08-30T12:16:21.767Z,29.54
2022-08-30T12:18:50.983Z,29.93
2022-08-30T12:21:21.282Z,30.64
2022-08-30T12:23:57.212Z,30.87
2022-08-30T12:26:26.680Z,30.93
2022-08-30T12:29:23.119Z,31.05
2022-08-30T12:32:06.005Z,31.08
2022-08-30T12:34:35.560Z,31.18
2022-08-30T12:37:04.761Z,31.34
2022-08-30T12:39:37.533Z,30.64
2022-08-30T12:42:23.107Z,30.53
2022-08-30T12:44:57.857Z,30.07
2022-08-30T12:47:42.030Z,31.20
2022-08-30T12:50:15.352Z,30.67
2022-08-30T12:52:46.246Z,31.09
2022-08-30T12:55:19.516Z,31.30
2022-08-30T12:58:00.620Z,31.46
2022-08-30T13:00:38.455Z,31.56
2022-08-30T13:03:25.960Z,31.57
2022-08-30T13:05:57.490Z,31.57
2022-08-30T13:08:38.476Z,31.74
2022-08-30T13:11:09.336Z,30.79
2022-08-30T13:13:52.714Z,31.69
2022-08-30T13:16:22.536Z,31.79
2022-08-30T13:19:15.907Z,31.91
2022-08-30T13:22:00.965Z,31.81
2022-08-30T13:24:28.497Z,32.10
2022-08-30T13:27:04.437Z,31.02
2022-08-30T13:29:31.911Z,31.84
2022-08-30T13:31:58.536Z,31.30
2022-08-30T13:34:26.758Z,30.97
2022-08-30T13:36:59.312Z,31.13
2022-08-30T13:39:37.903Z,31.22
2022-08-30T13:44:54.009Z,31.39
2022-08-30T13:47:37.162Z,31.17
2022-08-30T13:50:07.908Z,32.30
2022-08-30T13:52:36.283Z,32.28
2022-08-30T13:55:02.879Z,32.27
2022-08-30T14:00:21.375Z,32.02
2022-08-30T14:02:55.002Z,32.12
2022-08-30T14:06:04.632Z,32.23
2022-08-30T14:11:19.351Z,32.24
2022-08-30T14:16:35.799Z,32.21
2022-08-30T14:19:03.247Z,32.88
2022-08-30T14:21:29.981Z,32.96
2022-08-30T14:23:58.051Z,31.88
2022-08-30T14:26:36.691Z,32.90
2022-08-30T14:29:09.205Z,32.48
2022-08-30T14:31:39.800Z,32.05
2022-08-30T14:34:08.066Z,31.79
2022-08-30T14:36:36.969Z,32.51
2022-08-30T14:39:08.390Z,33.08
2022-08-30T14:41:39.005Z,32.83
2022-08-30T14:44:10.615Z,33.03
2022-08-30T14:46:37.263Z,33.00
2022-08-30T14:49:03.815Z,32.97
2022-08-30T14:51:32.420Z,33.22
2022-08-30T14:54:00.362Z,33.24
2022-08-30T14:56:26.897Z,33.16
2022-08-30T14:59:00.122Z,33.13
2022-08-30T15:01:28.200Z,32.96
2022-08-30T15:03:55.094Z,32.56
2022-08-30T15:06:22.187Z,33.10
2022-08-30T15:08:48.759Z,32.99
2022-08-30T15:11:17.446Z,32.45
2022-08-30T15:13:46.894Z,32.43
2022-08-30T15:16:20.546Z,32.60
2022-08-30T15:18:47.874Z,32.75
2022-08-30T15:21:15.008Z,32.19
2022-08-30T15:23:41.617Z,31.99
2022-08-30T15:26:10.947Z,31.95
2022-08-30T15:28:37.710Z,32.07
2022-08-30T15:31:08.737Z,32.25
2022-08-30T15:33:36.372Z,32.37
2022-08-30T15:36:04.882Z,32.67
2022-08-30T15:38:32.353Z,32.32
2022-08-30T15:41:03.594Z,32.69
2022-08-30T15:43:31.549Z,32.93
2022-08-30T15:46:32.317Z,33.05
2022-08-30T15:49:11.354Z,32.57
2022-08-30T15:51:41.678Z,32.12
2022-08-30T15:54:18.652Z,32.56
2022-08-30T15:56:48.474Z,33.03
2022-08-30T15:59:16.596Z,32.56
2022-08-30T16:01:49.555Z,31.92
2022-08-30T16:04:18.393Z,32.32
2022-08-30T16:06:45.658Z,32.71
2022-08-30T16:09:12.520Z,32.05
2022-08-30T16:11:39.097Z,32.30
2022-08-30T16:14:07.094Z,32.04
2022-08-30T16:16:35.232Z,32.06
2022-08-30T16:19:01.861Z,32.20
2022-08-30T16:21:31.197Z,31.94
2022-08-30T16:24:00.297Z,32.04
2022-08-30T16:26:28.086Z,32.09
2022-08-30T16:29:00.797Z,32.04
2022-08-30T16:31:31.680Z,31.74
2022-08-30T16:34:02.573Z,31.42
2022-08-30T16:36:32.269Z,31.08
2022-08-30T16:39:01.974Z,30.38
2022-08-30T16:41:33.893Z,31.28
2022-08-30T16:44:03.769Z,31.23
2022-08-30T16:46:33.446Z,31.13
2022-08-30T16:49:03.535Z,31.10
2022-08-30T16:51:32.294Z,31.22
2022-08-30T16:54:01.573Z,31.31
2022-08-30T16:56:30.069Z,31.18
2022-08-30T16:59:02.087Z,31.02
2022-08-30T17:01:34.838Z,30.82
2022-08-30T17:04:02.610Z,30.78
2022-08-30T17:06:32.289Z,30.61
2022-08-30T17:08:58.759Z,30.53
2022-08-30T17:11:25.681Z,30.96
2022-08-30T17:13:52.940Z,30.84
2022-08-30T17:16:22.753Z,31.03
2022-08-30T17:18:54.630Z,30.79
2022-08-30T17:21:21.022Z,30.88
2022-08-30T17:23:48.558Z,30.61
2022-08-30T17:26:16.505Z,30.57
2022-08-30T17:28:43.226Z,30.51
2022-08-30T17:31:10.763Z,30.39
2022-08-30T17:33:39.732Z,30.38
2022-08-30T17:36:07.389Z,30.45
2022-08-30T17:38:33.904Z,30.32
2022-08-30T17:41:06.471Z,30.34
2022-08-30T17:43:34.877Z,30.15
2022-08-30T17:46:10.456Z,30.22
2022-08-30T17:48:37.848Z,30.30
2022-08-30T17:51:05.432Z,30.00
2022-08-30T17:53:32.486Z,30.27
2022-08-30T17:55:59.133Z,30.17
2022-08-30T17:58:26.550Z,30.13
2022-08-30T18:00:56.006Z,29.95
2022-08-30T18:03:22.501Z,29.95
2022-08-30T18:05:49.785Z,29.97
2022-08-30T18:08:16.354Z,30.10
2022-08-30T18:10:42.924Z,30.14
2022-08-30T18:13:09.451Z,29.64
2022-08-30T18:15:35.861Z,29.90
2022-08-30T18:18:02.321Z,29.79
2022-08-30T18:20:31.930Z,29.57
2022-08-30T18:22:58.506Z,29.39
2022-08-30T18:25:24.937Z,29.22
2022-08-30T18:27:58.356Z,28.98
2022-08-30T18:30:33.270Z,29.50
2022-08-30T18:33:01.253Z,29.10
2022-08-30T18:35:27.745Z,29.16
2022-08-30T18:37:54.434Z,29.04
2022-08-30T18:40:21.056Z,29.26
2022-08-30T18:42:47.655Z,29.12
2022-08-30T18:45:17.404Z,29.23
2022-08-30T18:47:44.870Z,28.61
2022-08-30T18:50:12.478Z,28.96
2022-08-30T18:52:39.120Z,28.66
2022-08-30T18:55:07.291Z,28.69
2022-08-30T18:57:35.005Z,28.68
2022-08-30T19:00:03.684Z,28.84
2022-08-30T19:02:30.123Z,28.75
2022-08-30T19:04:56.614Z,28.60
2022-08-30T19:07:28.907Z,28.78
2022-08-30T19:10:12.204Z,28.83
2022-08-30T19:12:39.187Z,28.89
2022-08-30T19:15:10.880Z,28.53
2022-08-30T19:17:40.081Z,28.89
2022-08-30T19:20:09.776Z,28.82
2022-08-30T19:23:05.895Z,28.73
2022-08-30T19:25:24.310Z,28.64
2022-08-30T19:27:51.502Z,28.69
2022-08-30T19:30:25.109Z,28.58
2022-08-30T19:32:56.010Z,28.29
2022-08-30T19:35:22.998Z,28.01
2022-08-30T19:37:51.009Z,28.07
2022-08-30T19:40:22.605Z,28.36
2022-08-30T19:42:50.294Z,27.84
2022-08-30T19:45:18.619Z,28.44
2022-08-30T19:47:47.827Z,27.79
2022-08-30T19:50:15.579Z,28.41
2022-08-30T19:52:42.756Z,28.00
2022-08-30T19:55:10.409Z,28.36
2022-08-30T19:57:38.960Z,28.40
2022-08-30T20:00:09.365Z,28.17
2022-08-30T20:02:38.737Z,28.24
2022-08-30T20:05:05.684Z,28.18
2022-08-30T20:07:35.389Z,27.93
2022-08-30T20:10:11.871Z,27.66
2022-08-30T20:12:39.837Z,27.92
2022-08-30T20:15:14.611Z,27.95
2022-08-30T20:18:03.363Z,27.91
2022-08-30T20:20:33.278Z,27.70
2022-08-30T20:23:00.453Z,27.77
2022-08-30T20:25:28.636Z,27.62
2022-08-30T20:27:55.544Z,27.64
2022-08-30T20:30:22.190Z,27.03
2022-08-30T20:32:48.650Z,27.59
2022-08-30T20:35:16.844Z,27.45
2022-08-30T20:37:44.299Z,27.46
2022-08-30T20:40:15.490Z,27.48
2022-08-30T20:42:45.270Z,27.54
2022-08-30T20:45:14.219Z,27.62
2022-08-30T20:47:41.701Z,27.47
2022-08-30T20:50:14.115Z,27.50
2022-08-30T20:52:41.170Z,27.53
2022-08-30T20:55:09.155Z,27.51
2022-08-30T20:57:35.862Z,27.56
2022-08-30T21:00:02.672Z,27.28
2022-08-30T21:02:29.429Z,27.33
2022-08-30T21:04:55.959Z,27.44
2022-08-30T21:07:22.604Z,27.35
2022-08-30T21:09:50.201Z,27.50
2022-08-30T21:12:16.738Z,26.87
2022-08-30T21:14:43.199Z,27.38
2022-08-30T21:17:09.958Z,26.63
2022-08-30T21:19:38.866Z,27.32
2022-08-30T21:22:07.654Z,27.32
2022-08-30T21:24:34.909Z,27.05
2022-08-30T21:27:01.502Z,27.16
2022-08-30T21:29:29.955Z,26.94
2022-08-30T21:31:57.273Z,27.19
2022-08-30T21:34:24.074Z,27.10
2022-08-30T21:36:50.762Z,26.81
2022-08-30T21:39:23.496Z,26.77
2022-08-30T21:41:52.996Z,26.67
2022-08-30T21:44:22.443Z,26.47
2022-08-30T21:46:52.082Z,26.57
2022-08-30T21:49:21.342Z,26.63
2022-08-30T21:51:49.461Z,26.42
2022-08-30T21:54:18.091Z,26.58
2022-08-30T21:56:46.966Z,26.52
2022-08-30T21:59:13.900Z,26.33
2022-08-30T22:01:43.136Z,26.44
2022-08-30T22:04:11.175Z,26.66
2022-08-30T22:06:40.189Z,26.80
2022-08-30T22:09:09.495Z,26.73
2022-08-30T22:11:36.799Z,27.06
2022-08-30T22:14:05.129Z,27.05
2022-08-30T22:16:31.630Z,26.98
2022-08-30T22:18:58.527Z,26.23
2022-08-30T22:21:27.648Z,26.67
2022-08-30T22:23:54.563Z,25.92
2022-08-30T22:26:22.679Z,26.56
2022-08-30T22:28:50.372Z,26.34
2022-08-30T22:31:18.761Z,26.39
2022-08-30T22:33:46.974Z,26.31
2022-08-30T22:36:17.256Z,26.46
2022-08-30T22:38:44.466Z,26.54
2022-08-30T22:41:17.083Z,26.50
2022-08-30T22:43:44.268Z,26.58
2022-08-30T22:46:11.586Z,26.20
2022-08-30T22:48:40.562Z,26.27
2022-08-30T22:51:07.954Z,26.03
2022-08-30T22:53:36.664Z,26.13
2022-08-30T22:56:12.384Z,25.92
2022-08-30T22:58:39.088Z,25.95
2022-08-30T23:01:06.527Z,24.87
2022-08-30T23:03:36.789Z,24.78
2022-08-30T23:06:04.087Z,25.07
2022-08-30T23:08:30.498Z,24.15
2022-08-30T23:10:57.881Z,25.01
2022-08-30T23:13:24.940Z,25.11
2022-08-30T23:15:51.468Z,25.10
2022-08-30T23:18:17.840Z,24.00
2022-08-30T23:20:45.402Z,25.12
2022-08-30T23:23:30.920Z,24.83
2022-08-30T23:26:18.775Z,24.81
2022-08-30T23:29:04.585Z,24.85
2022-08-30T23:31:50.035Z,24.75
2022-08-30T23:34:35.026Z,24.40
2022-08-30T23:37:19.949Z,24.43
2022-08-30T23:40:04.754Z,24.42
2022-08-30T23:42:49.713Z,24.29
2022-08-30T23:45:34.489Z,24.29
2022-08-30T23:48:19.555Z,23.71
2022-08-30T23:51:04.535Z,24.00
2022-08-30T23:53:49.238Z,24.10
2022-08-30T23:56:34.063Z,24.33
2022-08-30T23:59:18.807Z,24.33
